Eppley Airfield

Airport
ICAO code: 
KOMA
Summary
ICAO Region: 
NAM
Territory: 
Location: 
Omaha, Nebraska,
Coordinates: 
Aerial View: 
41° 18' 10.705" N, 95° 53' 44.771" W
Airport LOS: 
Parallel Runway Operation
Metar
Observation
KOMA 040652Z 36009KT 10SM SCT090 02/00 A3027 RMK AO2 SLP253 T00220000
Station
Omaha, Eppley Airfield
Date/Time
2021-12-04 06:52:00
Wind direction
360°
Wind speed
09 kts
Lowest cloud amount
scattered clouds
Temperature
2.2°C
Dew point
0°C
Humidity
85%
Weather condition
n/a

Description

Eppley Airfield is a public use airport located 5.0 km northeast of the central business district of Omaha, in Douglas County, Nebraska.

Climatology

Humid continental climate (Köppen climate classification Dfa) - characterized by four seasons: cold, windy, snowy winters, mild springs, hot, humid summers, and crisp and relatively short autumns. Precipitation reaches its lowest in January and February and peaks in summer and latter half of spring.

Runways

Designator Length Width Surface Rops
18/36 2485 46 PEM Yes/Yes
14L/32R 2591 46 CON Yes/Yes
14R/32L 2896 46 PEM Yes/Yes
Airport map: 
Aerial View: 

SKYbrary Partners:

Safety knowledge contributed by: